Lotheni — ZR8530 — position and weather

sailwx.info

Track history (hours):
 
Tides and Currents Weather Stations Pressure Air Temp Water Temp Dewpoint Dewpoint Depression Visibility Wind Speed Wind Dir Waves Ship Positions

Lotheni

Last reported at 2015-Mar-29 09:33 UTC. Time now 2015-Mar-29 10:35 UTC.
Position S 29°52' E 031°02'.

Type: Tug. MMSI: 601135800.

Date/timePositionNaut miles runAvg speedWind from/ knotsBaromVisibWave heightAir tempDewpointWater temp
2015-Mar-29 09:33S 29°52' E 031°02'1 0.4
2015-Mar-29 07:33S 29°52' E 031°02'1 1.4
2015-Mar-29 06:32S 29°53' E 031°02'1 0.7
2015-Mar-29 05:33S 29°53' E 031°02'1 0.2
2015-Mar-29 01:30S 29°52' E 031°02'0 0.0
2015-Mar-28 23:24S 29°52' E 031°02'1 0.8
2015-Mar-28 22:33S 29°52' E 031°02'1 0.2
2015-Mar-28 20:06S 29°52' E 031°02'1 1.1
2015-Mar-28 19:27S 29°53' E 031°01'1 0.7
2015-Mar-28 17:33S 29°52' E 031°03'1 0.4
2015-Mar-28 14:30S 29°53' E 031°02'1 0.9
2015-Mar-28 13:33S 29°53' E 031°03'0 0.2
2015-Mar-28 12:32S 29°52' E 031°02'1 0.6
2015-Mar-28 11:15S 29°52' E 031°02'1 1.5
2015-Mar-28 10:33S 29°53' E 031°02'1 0.9
2015-Mar-28 09:30S 29°53' E 031°01'0 0.2
2015-Mar-28 08:27S 29°53' E 031°01'1 1.3
2015-Mar-28 07:32S 29°52' E 031°03'0 0.0
2015-Mar-28 06:33S 29°52' E 031°03'1 0.9
2015-Mar-28 05:25S 29°53' E 031°02'0 0.0
2015-Mar-27 19:25S 29°53' E 031°01'1 1.5
2015-Mar-27 18:30S 29°52' E 031°03'1 1.4
2015-Mar-27 17:33S 29°53' E 031°01'1 0.2
2015-Mar-27 14:23S 29°52' E 031°02'0 0.3
2015-Mar-27 13:29S 29°52' E 031°02'1 1.1
2015-Mar-27 12:28S 29°52' E 031°03'0 0.0
2015-Mar-27 11:28S 29°52' E 031°03'2 1.7
2015-Mar-27 10:14S 29°53' E 031°00'0 0.2
2015-Mar-27 08:32S 29°52' E 031°01'1 0.0
2015-Mar-26 21:09S 29°53' E 031°00'1 0.4
2015-Mar-26 18:09S 29°53' E 031°02'1 1.9
2015-Mar-26 17:32S 29°53' E 031°03'1 0.1
2015-Mar-26 06:20S 29°52' E 031°02'1 0.1
2015-Mar-26 01:19S 29°52' E 031°02'0 0.1
2015-Mar-25 23:23S 29°52' E 031°02'1 0.2
2015-Mar-25 19:31S 29°52' E 031°01'1 0.8
2015-Mar-25 18:21S 29°52' E 031°02'0 0.0
2015-Mar-25 11:23S 29°52' E 031°02'1 0.9
2015-Mar-25 10:29S 29°53' E 031°03'0 0.3
2015-Mar-25 09:33S 29°53' E 031°03'1 0.1
2015-Mar-25 03:06S 29°52' E 031°02'1 1.4
2015-Mar-25 02:32S 29°53' E 031°02'1 0.1
2015-Mar-24 21:21S 29°52' E 031°02'1 1.6
2015-Mar-24 20:25S 29°53' E 031°02'0 0.0
2015-Mar-24 19:31S 29°53' E 031°02'1 1.3
2015-Mar-24 18:31S 29°53' E 031°03'1 0.3
2015-Mar-24 14:29S 29°52' E 031°02'0 0.0
2015-Mar-24 13:29S 29°52' E 031°02'2 1.9
2015-Mar-24 12:28S 29°53' E 031°00'2 1.5
2015-Mar-24 11:10S 29°52' E 031°02'0 0.0
2015-Mar-24 10:28S 29°52' E 031°02'0 0.0
2015-Mar-24 09:28S 29°52' E 031°02'0 0.0
2015-Mar-24 08:28S 29°52' E 031°02'1 1.2
2015-Mar-24 07:32S 29°53' E 031°02'1 0.3
2015-Mar-24 05:29S 29°52' E 031°02'1 0.1
2015-Mar-23 22:17S 29°53' E 031°01'1 0.5
2015-Mar-23 20:03S 29°52' E 031°02'0 0.0
2015-Mar-23 19:21S 29°52' E 031°02'1 1.2
2015-Mar-23 18:07S 29°52' E 031°03'1 0.9
2015-Mar-23 16:30S 29°52' E 031°02'0 0.0
2015-Mar-23 12:24S 29°52' E 031°02'0 0.0
2015-Mar-23 10:12S 29°52' E 031°02'0 0.0
2015-Mar-23 09:30S 29°52' E 031°02'0 0.0
2015-Mar-23 04:22S 29°52' E 031°02'0 0.0
2015-Mar-23 03:22S 29°52' E 031°02'0 0.0
2015-Mar-23 02:28S 29°52' E 031°02'1 1.1
2015-Mar-23 01:24S 29°53' E 031°01'1 1.3
2015-Mar-23 00:32S 29°52' E 031°02'1 0.2
2015-Mar-22 19:31S 29°53' E 031°01'0 0.1
2015-Mar-22 18:25S 29°53' E 031°02'1 0.7
2015-Mar-22 17:26S 29°52' E 031°02'1 0.1
2015-Mar-22 12:33S 29°53' E 031°03'0 0.0
2015-Mar-22 09:20S 29°53' E 031°03'1 0.5
2015-Mar-22 07:32S 29°52' E 031°02'0 0.1
2015-Mar-22 05:30S 29°53' E 031°02'1 0.9
2015-Mar-22 04:22S 29°52' E 031°02'0 0.0
2015-Mar-22 03:22S 29°52' E 031°02'0 0.0
2015-Mar-22 02:22S 29°52' E 031°02'1 1.3
2015-Mar-22 01:33S 29°53' E 031°02'1 0.2
2015-Mar-21 21:19S 29°53' E 031°03'1 0.3
2015-Mar-21 18:04S 29°53' E 031°02'0 0.4
2015-Mar-21 17:26S 29°53' E 031°01'1 0.9
2015-Mar-21 16:09S 29°52' E 031°02'0 0.0
2015-Mar-21 15:21S 29°52' E 031°02'0 0.0
2015-Mar-21 14:33S 29°52' E 031°02'0 0.0
2015-Mar-21 11:29S 29°52' E 031°02'1 0.7
2015-Mar-21 10:23S 29°53' E 031°01'1 0.7
2015-Mar-21 09:33S 29°53' E 031°02'1 0.9
2015-Mar-21 08:31S 29°53' E 031°01'1 0.9
2015-Mar-21 07:31S 29°52' E 031°02'0 0.4
2015-Mar-21 06:32S 29°52' E 031°02'1 0.7
2015-Mar-21 05:30S 29°52' E 031°02'1 0.1
2015-Mar-21 00:32S 29°52' E 031°02'0 0.3
2015-Mar-20 23:31S 29°52' E 031°02'0 0.1
2015-Mar-20 22:31S 29°53' E 031°02'0 0.4
2015-Mar-20 21:33S 29°53' E 031°02'1 0.4
2015-Mar-20 19:12S 29°53' E 031°03'0 0.1
2015-Mar-20 17:33S 29°53' E 031°03'1 0.6
2015-Mar-20 15:23S 29°52' E 031°02'0 0.0
2015-Mar-20 14:33S 29°52' E 031°02'1 1.4
2015-Mar-20 13:33S 29°53' E 031°02'1 1.3
2015-Mar-20 12:30S 29°52' E 031°02'0 0.0
2015-Mar-20 11:24S 29°52' E 031°02'0 0.0
2015-Mar-20 10:24S 29°52' E 031°02'0 0.0
2015-Mar-20 09:30S 29°52' E 031°02'1 1.5
2015-Mar-20 08:33S 29°53' E 031°03'1 0.7
2015-Mar-20 06:31S 29°52' E 031°02'1 1.1
2015-Mar-20 05:27S 29°52' E 031°03'1 0.4
2015-Mar-20 02:32S 29°52' E 031°02'0 0.0
2015-Mar-20 01:20S 29°52' E 031°02'1 0.9
2015-Mar-20 00:32S 29°52' E 031°02'1 0.5
2015-Mar-19 23:09S 29°52' E 031°02'2 2.4
2015-Mar-19 22:31S 29°53' E 031°02'1 1.2
2015-Mar-19 21:33S 29°53' E 031°03'1 1.2
2015-Mar-19 20:25S 29°52' E 031°02'1 0.6
2015-Mar-19 18:27S 29°53' E 031°01'0 0.4
2015-Mar-19 17:25S 29°53' E 031°02'0 0.1
2015-Mar-19 14:06S 29°52' E 031°02'1 1.8
2015-Mar-19 13:26S 29°53' E 031°02'1 0.6
2015-Mar-19 11:33S 29°52' E 031°02'0 0.2
2015-Mar-19 10:33S 29°52' E 031°02'  
Track history (hours):
 
Tides and Currents Weather Stations Pressure Air Temp Water Temp Dewpoint Dewpoint Depression Visibility Wind Speed Wind Dir Waves Ship Positions

Lotheni

Last reported at 2015-Mar-29 09:33 UTC. Time now 2015-Mar-29 10:35 UTC.
Position S 29°52' E 031°02'.

Type: Tug. MMSI: 601135800.

Date/timePositionNaut miles runAvg speedWind from/ knotsBaromVisibWave heightAir tempDewpointWater temp
2015-Mar-29 09:33S 29°52' E 031°02'1 0.4
2015-Mar-29 07:33S 29°52' E 031°02'1 1.4
2015-Mar-29 06:32S 29°53' E 031°02'1 0.7
2015-Mar-29 05:33S 29°53' E 031°02'1 0.2
2015-Mar-29 01:30S 29°52' E 031°02'0 0.0
2015-Mar-28 23:24S 29°52' E 031°02'1 0.8
2015-Mar-28 22:33S 29°52' E 031°02'1 0.2
2015-Mar-28 20:06S 29°52' E 031°02'1 1.1
2015-Mar-28 19:27S 29°53' E 031°01'1 0.7
2015-Mar-28 17:33S 29°52' E 031°03'1 0.4
2015-Mar-28 14:30S 29°53' E 031°02'1 0.9
2015-Mar-28 13:33S 29°53' E 031°03'0 0.2
2015-Mar-28 12:32S 29°52' E 031°02'1 0.6
2015-Mar-28 11:15S 29°52' E 031°02'1 1.5
2015-Mar-28 10:33S 29°53' E 031°02'1 0.9
2015-Mar-28 09:30S 29°53' E 031°01'0 0.2
2015-Mar-28 08:27S 29°53' E 031°01'1 1.3
2015-Mar-28 07:32S 29°52' E 031°03'0 0.0
2015-Mar-28 06:33S 29°52' E 031°03'1 0.9
2015-Mar-28 05:25S 29°53' E 031°02'0 0.0
2015-Mar-27 19:25S 29°53' E 031°01'1 1.5
2015-Mar-27 18:30S 29°52' E 031°03'1 1.4
2015-Mar-27 17:33S 29°53' E 031°01'1 0.2
2015-Mar-27 14:23S 29°52' E 031°02'0 0.3
2015-Mar-27 13:29S 29°52' E 031°02'1 1.1
2015-Mar-27 12:28S 29°52' E 031°03'0 0.0
2015-Mar-27 11:28S 29°52' E 031°03'2 1.7
2015-Mar-27 10:14S 29°53' E 031°00'0 0.2
2015-Mar-27 08:32S 29°52' E 031°01'1 0.0
2015-Mar-26 21:09S 29°53' E 031°00'1 0.4
2015-Mar-26 18:09S 29°53' E 031°02'1 1.9
2015-Mar-26 17:32S 29°53' E 031°03'1 0.1
2015-Mar-26 06:20S 29°52' E 031°02'1 0.1
2015-Mar-26 01:19S 29°52' E 031°02'0 0.1
2015-Mar-25 23:23S 29°52' E 031°02'1 0.2
2015-Mar-25 19:31S 29°52' E 031°01'1 0.8
2015-Mar-25 18:21S 29°52' E 031°02'0 0.0
2015-Mar-25 11:23S 29°52' E 031°02'1 0.9
2015-Mar-25 10:29S 29°53' E 031°03'0 0.3
2015-Mar-25 09:33S 29°53' E 031°03'1 0.1
2015-Mar-25 03:06S 29°52' E 031°02'1 1.4
2015-Mar-25 02:32S 29°53' E 031°02'1 0.1
2015-Mar-24 21:21S 29°52' E 031°02'1 1.6
2015-Mar-24 20:25S 29°53' E 031°02'0 0.0
2015-Mar-24 19:31S 29°53' E 031°02'1 1.3
2015-Mar-24 18:31S 29°53' E 031°03'1 0.3
2015-Mar-24 14:29S 29°52' E 031°02'0 0.0
2015-Mar-24 13:29S 29°52' E 031°02'2 1.9
2015-Mar-24 12:28S 29°53' E 031°00'2 1.5
2015-Mar-24 11:10S 29°52' E 031°02'0 0.0
2015-Mar-24 10:28S 29°52' E 031°02'0 0.0
2015-Mar-24 09:28S 29°52' E 031°02'0 0.0
2015-Mar-24 08:28S 29°52' E 031°02'1 1.2
2015-Mar-24 07:32S 29°53' E 031°02'1 0.3
2015-Mar-24 05:29S 29°52' E 031°02'1 0.1
2015-Mar-23 22:17S 29°53' E 031°01'1 0.5
2015-Mar-23 20:03S 29°52' E 031°02'0 0.0
2015-Mar-23 19:21S 29°52' E 031°02'1 1.2
2015-Mar-23 18:07S 29°52' E 031°03'1 0.9
2015-Mar-23 16:30S 29°52' E 031°02'0 0.0
2015-Mar-23 12:24S 29°52' E 031°02'0 0.0
2015-Mar-23 10:12S 29°52' E 031°02'0 0.0
2015-Mar-23 09:30S 29°52' E 031°02'0 0.0
2015-Mar-23 04:22S 29°52' E 031°02'0 0.0
2015-Mar-23 03:22S 29°52' E 031°02'0 0.0
2015-Mar-23 02:28S 29°52' E 031°02'1 1.1
2015-Mar-23 01:24S 29°53' E 031°01'1 1.3
2015-Mar-23 00:32S 29°52' E 031°02'1 0.2
2015-Mar-22 19:31S 29°53' E 031°01'0 0.1
2015-Mar-22 18:25S 29°53' E 031°02'1 0.7
2015-Mar-22 17:26S 29°52' E 031°02'1 0.1
2015-Mar-22 12:33S 29°53' E 031°03'0 0.0
2015-Mar-22 09:20S 29°53' E 031°03'1 0.5
2015-Mar-22 07:32S 29°52' E 031°02'0 0.1
2015-Mar-22 05:30S 29°53' E 031°02'1 0.9
2015-Mar-22 04:22S 29°52' E 031°02'0 0.0
2015-Mar-22 03:22S 29°52' E 031°02'0 0.0
2015-Mar-22 02:22S 29°52' E 031°02'1 1.3
2015-Mar-22 01:33S 29°53' E 031°02'1 0.2
2015-Mar-21 21:19S 29°53' E 031°03'1 0.3
2015-Mar-21 18:04S 29°53' E 031°02'0 0.4
2015-Mar-21 17:26S 29°53' E 031°01'1 0.9
2015-Mar-21 16:09S 29°52' E 031°02'0 0.0
2015-Mar-21 15:21S 29°52' E 031°02'0 0.0
2015-Mar-21 14:33S 29°52' E 031°02'0 0.0
2015-Mar-21 11:29S 29°52' E 031°02'1 0.7
2015-Mar-21 10:23S 29°53' E 031°01'1 0.7
2015-Mar-21 09:33S 29°53' E 031°02'1 0.9
2015-Mar-21 08:31S 29°53' E 031°01'1 0.9
2015-Mar-21 07:31S 29°52' E 031°02'0 0.4
2015-Mar-21 06:32S 29°52' E 031°02'1 0.7
2015-Mar-21 05:30S 29°52' E 031°02'1 0.1
2015-Mar-21 00:32S 29°52' E 031°02'0 0.3
2015-Mar-20 23:31S 29°52' E 031°02'0 0.1
2015-Mar-20 22:31S 29°53' E 031°02'0 0.4
2015-Mar-20 21:33S 29°53' E 031°02'1 0.4
2015-Mar-20 19:12S 29°53' E 031°03'0 0.1
2015-Mar-20 17:33S 29°53' E 031°03'1 0.6
2015-Mar-20 15:23S 29°52' E 031°02'0 0.0
2015-Mar-20 14:33S 29°52' E 031°02'1 1.4
2015-Mar-20 13:33S 29°53' E 031°02'1 1.3
2015-Mar-20 12:30S 29°52' E 031°02'0 0.0
2015-Mar-20 11:24S 29°52' E 031°02'0 0.0
2015-Mar-20 10:24S 29°52' E 031°02'0 0.0
2015-Mar-20 09:30S 29°52' E 031°02'1 1.5
2015-Mar-20 08:33S 29°53' E 031°03'1 0.7
2015-Mar-20 06:31S 29°52' E 031°02'1 1.1
2015-Mar-20 05:27S 29°52' E 031°03'1 0.4
2015-Mar-20 02:32S 29°52' E 031°02'0 0.0
2015-Mar-20 01:20S 29°52' E 031°02'1 0.9
2015-Mar-20 00:32S 29°52' E 031°02'1 0.5
2015-Mar-19 23:09S 29°52' E 031°02'2 2.4
2015-Mar-19 22:31S 29°53' E 031°02'1 1.2
2015-Mar-19 21:33S 29°53' E 031°03'1 1.2
2015-Mar-19 20:25S 29°52' E 031°02'1 0.6
2015-Mar-19 18:27S 29°53' E 031°01'0 0.4
2015-Mar-19 17:25S 29°53' E 031°02'0 0.1
2015-Mar-19 14:06S 29°52' E 031°02'1 1.8
2015-Mar-19 13:26S 29°53' E 031°02'1 0.6
2015-Mar-19 11:33S 29°52' E 031°02'0 0.2
2015-Mar-19 10:33S 29°52' E 031°02'  

Dump ship's entire track history